sensor_id;sensor_type;location;lat;lon;timestamp;pressure;altitude;pressure_sealevel;temperature;humidity
48800;BME280;34611;47.964;7.982;2022-08-11T00:05:20;97080.97;;;18.76;48.34
48800;BME280;34611;47.964;7.982;2022-08-11T00:12:20;97084.94;;;18.72;48.20
48800;BME280;34611;47.964;7.982;2022-08-11T00:19:22;97070.47;;;18.68;48.57
48800;BME280;34611;47.964;7.982;2022-08-11T00:26:23;97065.22;;;18.68;48.24
48800;BME280;34611;47.964;7.982;2022-08-11T00:33:30;97072.19;;;18.60;48.75
48800;BME280;34611;47.964;7.982;2022-08-11T00:40:41;97073.16;;;18.59;48.28
48800;BME280;34611;47.964;7.982;2022-08-11T00:47:47;97074.50;;;18.55;48.58
48800;BME280;34611;47.964;7.982;2022-08-11T01:02:17;97073.59;;;18.40;48.47
48800;BME280;34611;47.964;7.982;2022-08-11T01:16:51;97072.31;;;18.36;48.99
48800;BME280;34611;47.964;7.982;2022-08-11T01:31:24;97068.56;;;18.22;48.75
48800;BME280;34611;47.964;7.982;2022-08-11T01:45:49;97075.00;;;18.19;49.03
48800;BME280;34611;47.964;7.982;2022-08-11T02:00:07;97067.75;;;18.22;49.09
48800;BME280;34611;47.964;7.982;2022-08-11T02:07:21;97069.09;;;18.17;49.54
48800;BME280;34611;47.964;7.982;2022-08-11T02:14:27;97069.09;;;18.17;49.40
48800;BME280;34611;47.964;7.982;2022-08-11T02:21:29;97065.81;;;18.15;49.13
48800;BME280;34611;47.964;7.982;2022-08-11T02:29:14;97059.78;;;18.07;49.13
48800;BME280;34611;47.964;7.982;2022-08-11T02:36:17;97048.41;;;18.06;49.54
48800;BME280;34611;47.964;7.982;2022-08-11T02:43:26;97056.00;;;18.01;49.54
48800;BME280;34611;47.964;7.982;2022-08-11T02:50:28;97062.63;;;17.89;49.54
48800;BME280;34611;47.964;7.982;2022-08-11T03:04:38;97051.94;;;17.82;50.38
48800;BME280;34611;47.964;7.982;2022-08-11T03:19:18;97045.69;;;17.83;50.38
48800;BME280;34611;47.964;7.982;2022-08-11T03:40:51;97046.69;;;17.82;50.11
48800;BME280;34611;47.964;7.982;2022-08-11T04:10:21;97057.72;;;17.69;50.21
48800;BME280;34611;47.964;7.982;2022-08-11T04:24:57;97062.00;;;17.62;50.39
48800;BME280;34611;47.964;7.982;2022-08-11T04:32:00;97056.75;;;17.62;50.51
48800;BME280;34611;47.964;7.982;2022-08-11T04:53:33;97054.72;;;17.80;50.66
48800;BME280;34611;47.964;7.982;2022-08-11T05:15:43;97047.31;;;18.32;51.63
48800;BME280;34611;47.964;7.982;2022-08-11T05:23:04;97063.41;;;18.37;51.60
48800;BME280;34611;47.964;7.982;2022-08-11T05:30:26;97050.72;;;18.40;51.81
48800;BME280;34611;47.964;7.982;2022-08-11T05:37:45;97052.03;;;18.45;51.96
48800;BME280;34611;47.964;7.982;2022-08-11T05:45:08;97050.84;;;18.47;52.04
48800;BME280;34611;47.964;7.982;2022-08-11T05:52:28;97040.78;;;18.51;52.11
48800;BME280;34611;47.964;7.982;2022-08-11T05:59:48;97040.63;;;18.52;51.92
48800;BME280;34611;47.964;7.982;2022-08-11T06:06:56;97041.28;;;18.54;52.32
48800;BME280;34611;47.964;7.982;2022-08-11T06:13:57;97045.53;;;18.55;52.27
48800;BME280;34611;47.964;7.982;2022-08-11T06:21:00;97040.91;;;18.57;52.43
48800;BME280;34611;47.964;7.982;2022-08-11T06:28:04;97039.94;;;18.58;52.52
48800;BME280;34611;47.964;7.982;2022-08-11T06:42:10;97030.69;;;18.63;52.70
48800;BME280;34611;47.964;7.982;2022-08-11T06:49:20;97037.59;;;18.64;52.64
48800;BME280;34611;47.964;7.982;2022-08-11T06:56:39;97033.78;;;18.66;52.77
48800;BME280;34611;47.964;7.982;2022-08-11T07:04:03;97034.63;;;18.67;52.67
48800;BME280;34611;47.964;7.982;2022-08-11T07:18:34;97026.53;;;18.68;52.88
48800;BME280;34611;47.964;7.982;2022-08-11T07:25:54;97024.53;;;18.70;52.87
48800;BME280;34611;47.964;7.982;2022-08-11T07:33:18;97024.38;;;18.72;53.01
48800;BME280;34611;47.964;7.982;2022-08-11T07:40:22;97013.03;;;18.71;53.00
48800;BME280;34611;47.964;7.982;2022-08-11T07:47:22;97020.72;;;18.73;52.95
48800;BME280;34611;47.964;7.982;2022-08-11T07:54:41;97025.00;;;18.74;52.88
48800;BME280;34611;47.964;7.982;2022-08-11T08:01:42;97024.84;;;18.75;52.98
48800;BME280;34611;47.964;7.982;2022-08-11T08:09:02;97011.66;;;18.75;52.95
48800;BME280;34611;47.964;7.982;2022-08-11T08:16:23;97003.56;;;18.77;53.20
48800;BME280;34611;47.964;7.982;2022-08-11T08:23:44;97010.50;;;18.78;53.23
48800;BME280;34611;47.964;7.982;2022-08-11T08:30:45;97012.16;;;18.79;53.18
48800;BME280;34611;47.964;7.982;2022-08-11T08:37:51;97001.63;;;18.79;53.26
48800;BME280;34611;47.964;7.982;2022-08-11T08:44:55;96999.97;;;18.78;53.30
48800;BME280;34611;47.964;7.982;2022-08-11T08:51:59;97000.63;;;18.80;53.33
48800;BME280;34611;47.964;7.982;2022-08-11T08:59:00;96996.19;;;18.80;53.37
48800;BME280;34611;47.964;7.982;2022-08-11T09:06:01;96996.00;;;18.82;53.32
48800;BME280;34611;47.964;7.982;2022-08-11T09:13:01;96996.00;;;18.82;53.47
48800;BME280;34611;47.964;7.982;2022-08-11T09:20:05;97001.28;;;18.82;53.39
48800;BME280;34611;47.964;7.982;2022-08-11T09:27:06;96997.63;;;18.83;53.30
48800;BME280;34611;47.964;7.982;2022-08-11T09:34:07;96989.72;;;18.83;53.44
48800;BME280;34611;47.964;7.982;2022-08-11T09:41:09;96981.81;;;18.83;53.35
48800;BME280;34611;47.964;7.982;2022-08-11T09:48:10;96982.66;;;18.84;53.54
48800;BME280;34611;47.964;7.982;2022-08-11T09:55:10;96972.94;;;18.84;53.57
48800;BME280;34611;47.964;7.982;2022-08-11T10:02:12;96966.66;;;18.85;53.54
48800;BME280;34611;47.964;7.982;2022-08-11T10:09:16;96968.31;;;18.86;53.65
48800;BME280;34611;47.964;7.982;2022-08-11T10:16:18;96975.22;;;18.87;53.65
48800;BME280;34611;47.964;7.982;2022-08-11T10:23:20;96960.41;;;18.86;53.64
48800;BME280;34611;47.964;7.982;2022-08-11T10:30:39;96964.69;;;18.87;53.60
48800;BME280;34611;47.964;7.982;2022-08-11T10:37:58;96963.06;;;18.86;53.65
48800;BME280;34611;47.964;7.982;2022-08-11T10:44:59;96958.44;;;18.88;53.75
48800;BME280;34611;47.964;7.982;2022-08-11T10:52:00;96948.69;;;18.89;53.64
48800;BME280;34611;47.964;7.982;2022-08-11T10:59:21;96941.59;;;18.89;53.74
48800;BME280;34611;47.964;7.982;2022-08-11T11:13:45;96943.44;;;18.89;53.61
48800;BME280;34611;47.964;7.982;2022-08-11T11:21:06;96924.81;;;18.90;53.69
48800;BME280;34611;47.964;7.982;2022-08-11T11:42:13;96923.81;;;18.91;53.68
48800;BME280;34611;47.964;7.982;2022-08-11T11:49:16;96907.03;;;18.92;53.69
48800;BME280;34611;47.964;7.982;2022-08-11T11:56:17;96895.69;;;18.92;53.77
48800;BME280;34611;47.964;7.982;2022-08-11T12:03:18;96890.41;;;18.92;53.78
48800;BME280;34611;47.964;7.982;2022-08-11T12:10:18;96893.03;;;18.92;53.73
48800;BME280;34611;47.964;7.982;2022-08-11T12:17:19;96885.94;;;18.92;53.81
48800;BME280;34611;47.964;7.982;2022-08-11T12:24:19;96880.69;;;18.92;53.94
48800;BME280;34611;47.964;7.982;2022-08-11T12:31:39;96869.13;;;18.93;53.74
48800;BME280;34611;47.964;7.982;2022-08-11T12:38:39;96862.88;;;18.94;53.71
48800;BME280;34611;47.964;7.982;2022-08-11T12:45:40;96854.97;;;18.94;53.69
48800;BME280;34611;47.964;7.982;2022-08-11T12:52:44;96839.19;;;18.94;53.65
48800;BME280;34611;47.964;7.982;2022-08-11T12:59:50;96848.69;;;18.95;53.92
48800;BME280;34611;47.964;7.982;2022-08-11T13:07:10;96834.72;;;18.95;53.91
48800;BME280;34611;47.964;7.982;2022-08-11T13:14:10;96826.00;;;18.94;53.84
48800;BME280;34611;47.964;7.982;2022-08-11T13:21:11;96824.00;;;18.96;53.98
48800;BME280;34611;47.964;7.982;2022-08-11T13:28:13;96815.09;;;18.97;53.89
48800;BME280;34611;47.964;7.982;2022-08-11T13:35:15;96804.53;;;18.97;53.96
48800;BME280;34611;47.964;7.982;2022-08-11T13:42:16;96813.47;;;18.96;53.97
48800;BME280;34611;47.964;7.982;2022-08-11T13:49:19;96804.53;;;18.97;53.86
48800;BME280;34611;47.964;7.982;2022-08-11T13:56:21;96787.94;;;18.97;53.69
48800;BME280;34611;47.964;7.982;2022-08-11T14:03:22;96785.31;;;18.97;53.97
48800;BME280;34611;47.964;7.982;2022-08-11T14:10:26;96773.78;;;18.98;54.03
48800;BME280;34611;47.964;7.982;2022-08-11T14:17:28;96776.19;;;18.99;54.02
48800;BME280;34611;47.964;7.982;2022-08-11T14:24:30;96772.59;;;19.00;53.95
48800;BME280;34611;47.964;7.982;2022-08-11T14:31:32;96760.41;;;18.99;54.03
48800;BME280;34611;47.964;7.982;2022-08-11T14:38:33;96758.78;;;18.98;54.05
48800;BME280;34611;47.964;7.982;2022-08-11T14:45:34;96751.69;;;18.99;54.02
48800;BME280;34611;47.964;7.982;2022-08-11T14:53:00;96754.16;;;19.00;54.03
48800;BME280;34611;47.964;7.982;2022-08-11T15:00:04;96745.44;;;19.00;54.20
48800;BME280;34611;47.964;7.982;2022-08-11T15:07:05;96744.41;;;19.01;54.10
48800;BME280;34611;47.964;7.982;2022-08-11T15:14:07;96737.31;;;19.01;54.05
48800;BME280;34611;47.964;7.982;2022-08-11T15:21:07;96731.06;;;19.03;54.06
48800;BME280;34611;47.964;7.982;2022-08-11T15:28:27;96742.59;;;19.01;54.06
48800;BME280;34611;47.964;7.982;2022-08-11T15:35:47;96731.25;;;19.01;54.18
48800;BME280;34611;47.964;7.982;2022-08-11T15:43:09;96732.06;;;19.01;54.24
48800;BME280;34611;47.964;7.982;2022-08-11T15:50:29;96718.06;;;19.01;54.33
48800;BME280;34611;47.964;7.982;2022-08-11T15:57:31;96721.34;;;19.03;54.10
48800;BME280;34611;47.964;7.982;2022-08-11T16:04:51;96708.16;;;19.03;54.05
48800;BME280;34611;47.964;7.982;2022-08-11T16:11:52;96713.44;;;19.03;54.17
48800;BME280;34611;47.964;7.982;2022-08-11T16:18:54;96703.72;;;19.04;54.20
48800;BME280;34611;47.964;7.982;2022-08-11T16:25:55;96708.00;;;19.05;54.14
48800;BME280;34611;47.964;7.982;2022-08-11T16:32:56;96693.16;;;19.04;54.18
48800;BME280;34611;47.964;7.982;2022-08-11T16:39:57;96693.97;;;19.04;54.34
48800;BME280;34611;47.964;7.982;2022-08-11T16:46:57;96697.44;;;19.05;54.36
48800;BME280;34611;47.964;7.982;2022-08-11T16:53:58;96686.91;;;19.05;54.30
48800;BME280;34611;47.964;7.982;2022-08-11T17:01:00;96696.44;;;19.06;54.35
48800;BME280;34611;47.964;7.982;2022-08-11T17:08:01;96703.34;;;19.07;54.29
48800;BME280;34611;47.964;7.982;2022-08-11T17:15:22;96690.34;;;19.05;54.34
48800;BME280;34611;47.964;7.982;2022-08-11T17:22:43;96702.50;;;19.06;54.30
48800;BME280;34611;47.964;7.982;2022-08-11T17:30:03;96700.91;;;19.05;54.30
48800;BME280;34611;47.964;7.982;2022-08-11T17:37:04;96703.34;;;19.07;54.32
48800;BME280;34611;47.964;7.982;2022-08-11T17:44:04;96714.69;;;19.07;54.44
48800;BME280;34611;47.964;7.982;2022-08-11T17:51:23;96711.03;;;19.08;54.34
48800;BME280;34611;47.964;7.982;2022-08-11T17:58:43;96721.59;;;19.08;54.35
48800;BME280;34611;47.964;7.982;2022-08-11T18:06:02;96729.50;;;19.08;54.33
48800;BME280;34611;47.964;7.982;2022-08-11T18:13:06;96749.59;;;19.09;54.47
48800;BME280;34611;47.964;7.982;2022-08-11T18:20:25;96756.69;;;19.09;54.49
48800;BME280;34611;47.964;7.982;2022-08-11T18:27:45;96755.66;;;19.10;54.53
48800;BME280;34611;47.964;7.982;2022-08-11T18:35:05;96768.84;;;19.10;54.36
48800;BME280;34611;47.964;7.982;2022-08-11T18:42:25;96765.38;;;19.09;54.50
48800;BME280;34611;47.964;7.982;2022-08-11T18:49:45;96776.75;;;19.10;54.57
48800;BME280;34611;47.964;7.982;2022-08-11T18:57:07;96782.00;;;19.10;54.67
48800;BME280;34611;47.964;7.982;2022-08-11T19:04:27;96792.53;;;19.10;54.69
48800;BME280;34611;47.964;7.982;2022-08-11T19:11:46;96794.19;;;19.11;54.81
48800;BME280;34611;47.964;7.982;2022-08-11T19:19:05;96811.63;;;19.12;54.75
48800;BME280;34611;47.964;7.982;2022-08-11T19:26:25;96810.00;;;19.11;54.65
48800;BME280;34611;47.964;7.982;2022-08-11T19:33:45;96819.53;;;19.12;54.73
48800;BME280;34611;47.964;7.982;2022-08-11T19:41:06;96818.72;;;19.11;54.83
48800;BME280;34611;47.964;7.982;2022-08-11T19:48:25;96832.72;;;19.12;54.89
48800;BME280;34611;47.964;7.982;2022-08-11T19:55:47;96837.97;;;19.12;54.83
48800;BME280;34611;47.964;7.982;2022-08-11T20:03:09;96839.81;;;19.11;54.95
48800;BME280;34611;47.964;7.982;2022-08-11T20:10:28;96836.16;;;19.12;54.81
48800;BME280;34611;47.964;7.982;2022-08-11T20:17:50;96847.53;;;19.13;54.98
48800;BME280;34611;47.964;7.982;2022-08-11T20:25:09;96859.88;;;19.12;54.92
48800;BME280;34611;47.964;7.982;2022-08-11T20:32:30;96861.50;;;19.13;55.07
48800;BME280;34611;47.964;7.982;2022-08-11T20:39:48;96865.13;;;19.12;55.06
48800;BME280;34611;47.964;7.982;2022-08-11T20:47:08;96865.97;;;19.13;54.97
48800;BME280;34611;47.964;7.982;2022-08-11T20:54:27;96872.06;;;19.13;55.10
48800;BME280;34611;47.964;7.982;2022-08-11T21:01:47;96879.78;;;19.15;55.05
48800;BME280;34611;47.964;7.982;2022-08-11T21:09:06;96881.59;;;19.14;55.03
48800;BME280;34611;47.964;7.982;2022-08-11T21:16:27;96879.78;;;19.15;55.01
48800;BME280;34611;47.964;7.982;2022-08-11T21:23:48;96869.59;;;19.12;54.95
48800;BME280;34611;47.964;7.982;2022-08-11T21:31:08;96882.13;;;19.10;55.09
48800;BME280;34611;47.964;7.982;2022-08-11T21:38:28;96881.31;;;19.09;55.05
48800;BME280;34611;47.964;7.982;2022-08-11T21:45:48;96878.88;;;19.08;54.98
48800;BME280;34611;47.964;7.982;2022-08-11T21:53:07;96872.97;;;19.06;55.05
48800;BME280;34611;47.964;7.982;2022-08-11T22:00:27;96867.84;;;19.04;54.92
48800;BME280;34611;47.964;7.982;2022-08-11T22:07:46;96862.16;;;19.00;54.97
48800;BME280;34611;47.964;7.982;2022-08-11T22:15:05;96863.50;;;18.96;54.67
48800;BME280;34611;47.964;7.982;2022-08-11T22:22:24;96858.41;;;18.95;54.21
48800;BME280;34611;47.964;7.982;2022-08-11T22:29:43;96854.97;;;18.94;54.41
48800;BME280;34611;47.964;7.982;2022-08-11T22:37:02;96849.88;;;18.93;54.17
48800;BME280;34611;47.964;7.982;2022-08-11T22:44:22;96855.31;;;18.91;54.13
48800;BME280;34611;47.964;7.982;2022-08-11T22:51:40;96850.06;;;18.91;53.86
48800;BME280;34611;47.964;7.982;2022-08-11T22:59:01;96845.00;;;18.90;54.13
48800;BME280;34611;47.964;7.982;2022-08-11T23:06:20;96841.25;;;18.84;53.72
48800;BME280;34611;47.964;7.982;2022-08-11T23:13:39;96831.19;;;18.88;53.31
48800;BME280;34611;47.964;7.982;2022-08-11T23:20:59;96833.28;;;18.92;53.79
48800;BME280;34611;47.964;7.982;2022-08-11T23:28:17;96827.38;;;18.90;53.78
48800;BME280;34611;47.964;7.982;2022-08-11T23:35:38;96840.88;;;18.87;53.67
48800;BME280;34611;47.964;7.982;2022-08-11T23:42:58;96825.06;;;18.87;53.72
48800;BME280;34611;47.964;7.982;2022-08-11T23:50:18;96825.72;;;18.89;53.79
48800;BME280;34611;47.964;7.982;2022-08-11T23:57:37;96832.63;;;18.90;53.68
